Huvudsida
METAR-TAF:

METAR-TAF

Flygplatser :

Luxemburg-Findels internationella flygplats

Luxemburg, Luxemburg

latitud: 49-37N, longitud: 006-13E, höjd: 376 m

Aktuellt väderrapport

Denna rapport gjordes för 30 minuter sedan, klockan 22:50 UTC
Vind 9 kt från nord/nordost
Temperatur 16°C
Fuktighet 59%
Tryck 1031 hPa
Sikt 10 km eller mer
Inga moln under 1 500 m eller inga cumulonimbus

METAR: ELLX 272250Z 02009KT CAVOK 16/08 Q1031 NOSIG

Tid: 01:20 (23:20 UTC)

Väderprognos

Denna rapport gjordes för 6 timmar och 20 minuter sedan, klockan 17:00 UTC
Prognos gäller från 27 kl. 18 UTC till 28 kl. 24 UTC
Vind 8 kt från ost/nordost
Sikt 10 km eller mer
Inga moln under 1 500 m eller inga cumulonimbus

TAF: ELLX 271700Z 2718/2824 07008KT CAVOK

Aktuella väderrapporter och prognoser från 4000 flygplatser (METAR- och TAF-rapporter).

De tillgängliga stationerna syns som gula och röda prickar på kartan.

För musen över prickarna för att se namnen på stationerna.

Klicka sedan för att få väderrapporter och prognoser.

För att ändra kartan: Klicka på de gröna knapparna med ett svart kors på för att zooma in; den gröna knappen med ett streck på för att zooma ut; eller på de gröna pilarna för angränsande kartor.


METAR-TAF: